Time;durP1;ratioP1;P1;durP2;ratioP2;P2;SDS_P1;SDS_P2;PMS_P1;PMS_P2;Temp;Humidity;BMP_temperature;BMP_pressure;BME280_temperature;BME280_humidity;BME280_pressure;Samples;Min_cycle;Max_cycle;Signal;HPM_P1;HPM_P2
2023/03/24 00:00:13;;;;;;;24.27;12.32;;;;;;;;;;10444726;28;20052;-88
2023/03/24 00:05:15;;;;;;;20.67;12.10;;;;;;;;;;10439925;28;20037;-87
2023/03/24 00:10:19;;;;;;;18.33;9.43;;;;;;;;;;10427127;28;20041;-87
2023/03/24 00:15:22;;;;;;;15.93;9.57;;;;;;;;;;10426814;28;20037;-88
2023/03/24 00:20:28;;;;;;;15.85;8.93;;;;;;;;;;10433670;28;20472;-87
2023/03/24 00:25:34;;;;;;;19.92;10.68;;;;;;;;;;10420536;28;20047;-90
2023/03/24 00:30:36;;;;;;;14.88;7.85;;;;;;;;;;10423431;28;20099;-89
2023/03/24 00:35:38;;;;;;;12.77;7.25;;;;;;;;;;10434065;28;20032;-88
2023/03/24 00:40:43;;;;;;;21.17;10.77;;;;;;;;;;10424676;28;20050;-87
2023/03/24 00:45:47;;;;;;;30.65;14.35;;;;;;;;;;10421264;28;20095;-87
2023/03/24 00:50:49;;;;;;;34.58;16.02;;;;;;;;;;10445156;28;20018;-87
2023/03/24 00:55:50;;;;;;;23.63;12.30;;;;;;;;;;10412003;28;20081;-86
2023/03/24 01:00:55;;;;;;;28.92;14.43;;;;;;;;;;10442808;28;20090;-86
2023/03/24 01:06:00;;;;;;;20.42;10.73;;;;;;;;;;10424374;28;20136;-87
2023/03/24 01:11:01;;;;;;;16.37;8.73;;;;;;;;;;10433610;28;20025;-86
2023/03/24 01:16:02;;;;;;;17.13;8.95;;;;;;;;;;10428247;28;20432;-87
2023/03/24 01:21:03;;;;;;;14.95;7.63;;;;;;;;;;10426599;28;20055;-87
2023/03/24 01:26:06;;;;;;;12.65;6.35;;;;;;;;;;10425295;28;20037;-87
2023/03/24 01:31:08;;;;;;;14.60;7.20;;;;;;;;;;10448682;28;20036;-87
2023/03/24 01:36:10;;;;;;;13.77;8.15;;;;;;;;;;10422149;28;20029;-87
2023/03/24 01:41:11;;;;;;;12.82;6.97;;;;;;;;;;10415149;28;20041;-86
2023/03/24 01:46:17;;;;;;;9.77;6.68;;;;;;;;;;10423914;28;20051;-86
2023/03/24 01:51:24;;;;;;;17.42;8.23;;;;;;;;;;10410438;28;20549;-86
2023/03/24 01:56:26;;;;;;;15.63;7.43;;;;;;;;;;10424867;28;20032;-86
2023/03/24 02:01:29;;;;;;;13.07;7.75;;;;;;;;;;10441338;28;20128;-86
2023/03/24 02:06:32;;;;;;;11.85;6.43;;;;;;;;;;10442132;28;20037;-87
2023/03/24 02:11:36;;;;;;;12.48;6.90;;;;;;;;;;10414283;28;20124;-88
2023/03/24 02:16:37;;;;;;;12.98;6.57;;;;;;;;;;10396378;28;20392;-87
2023/03/24 02:21:50;;;;;;;12.93;6.55;;;;;;;;;;10437006;28;20048;-86
2023/03/24 02:26:54;;;;;;;12.95;7.30;;;;;;;;;;10421844;28;20033;-87
2023/03/24 02:32:04;;;;;;;13.40;6.75;;;;;;;;;;10413414;28;20037;-87
2023/03/24 02:37:09;;;;;;;13.18;6.80;;;;;;;;;;10443864;28;20106;-87
2023/03/24 02:42:09;;;;;;;9.88;5.72;;;;;;;;;;10424664;28;20045;-87
2023/03/24 02:47:14;;;;;;;11.80;6.07;;;;;;;;;;10428037;28;20053;-87
2023/03/24 02:52:20;;;;;;;9.95;5.40;;;;;;;;;;10425041;28;20033;-87
2023/03/24 02:57:27;;;;;;;8.63;5.15;;;;;;;;;;10421279;28;20039;-86
2023/03/24 03:02:31;;;;;;;7.18;4.97;;;;;;;;;;10427306;28;20036;-86
2023/03/24 03:07:36;;;;;;;7.60;4.90;;;;;;;;;;10423784;28;20065;-86
2023/03/24 03:12:40;;;;;;;9.63;5.53;;;;;;;;;;10445164;28;20036;-86
2023/03/24 03:17:47;;;;;;;11.18;6.10;;;;;;;;;;10423996;28;20086;-86
2023/03/24 03:22:51;;;;;;;12.80;6.10;;;;;;;;;;10433409;22;20420;-86
2023/03/24 03:27:55;;;;;;;12.85;6.85;;;;;;;;;;10387712;28;20029;-87
2023/03/24 03:33:01;;;;;;;8.68;5.82;;;;;;;;;;10391912;28;20037;-86
2023/03/24 03:38:19;;;;;;;9.50;6.10;;;;;;;;;;10387835;28;20033;-87
2023/03/24 03:43:21;;;;;;;13.43;7.35;;;;;;;;;;10378857;28;20491;-87
2023/03/24 03:48:25;;;;;;;13.23;7.75;;;;;;;;;;10390709;28;20614;-87
2023/03/24 03:53:28;;;;;;;15.60;8.23;;;;;;;;;;10378991;28;20030;-86
2023/03/24 03:58:29;;;;;;;12.07;6.78;;;;;;;;;;10395724;23;20066;-87
2023/03/24 04:03:38;;;;;;;10.50;6.53;;;;;;;;;;10375117;28;20760;-85
2023/03/24 04:08:55;;;;;;;12.45;7.18;;;;;;;;;;10386090;28;20050;-87
2023/03/24 04:14:07;;;;;;;10.43;6.93;;;;;;;;;;10397824;28;20033;-88
2023/03/24 04:19:32;;;;;;;12.02;7.32;;;;;;;;;;10373062;28;20041;-88
2023/03/24 04:24:53;;;;;;;14.80;8.85;;;;;;;;;;10354743;28;20041;-86
2023/03/24 04:30:01;;;;;;;12.38;8.90;;;;;;;;;;10383364;28;20029;-86
2023/03/24 04:35:06;;;;;;;13.95;9.10;;;;;;;;;;10392463;28;20037;-86
2023/03/24 04:40:19;;;;;;;20.40;11.35;;;;;;;;;;10380458;28;20066;-85
2023/03/24 04:45:24;;;;;;;15.98;9.18;;;;;;;;;;10359796;28;20033;-87
2023/03/24 04:50:29;;;;;;;12.75;8.15;;;;;;;;;;10338730;28;20027;-86
2023/03/24 04:55:47;;;;;;;16.83;10.48;;;;;;;;;;10369716;28;20052;-85
2023/03/24 05:00:48;;;;;;;17.05;10.70;;;;;;;;;;10366058;28;20065;-87
2023/03/24 05:05:49;;;;;;;15.85;10.30;;;;;;;;;;10365288;28;20033;-85
2023/03/24 05:10:50;;;;;;;17.38;11.00;;;;;;;;;;10384727;28;20076;-88
2023/03/24 05:15:55;;;;;;;19.83;11.93;;;;;;;;;;10343538;28;20046;-85
2023/03/24 05:20:56;;;;;;;22.88;12.95;;;;;;;;;;10392609;28;20409;-86
2023/03/24 05:25:57;;;;;;;18.55;12.07;;;;;;;;;;10381690;28;20589;-86
2023/03/24 05:30:59;;;;;;;17.10;11.57;;;;;;;;;;10357521;28;20030;-87
2023/03/24 05:36:00;;;;;;;19.70;11.50;;;;;;;;;;10355930;28;20041;-86
2023/03/24 05:41:01;;;;;;;18.38;11.30;;;;;;;;;;10388621;28;20484;-86
2023/03/24 05:46:02;;;;;;;26.88;18.33;;;;;;;;;;10368301;28;20037;-85
2023/03/24 05:51:03;;;;;;;22.15;14.10;;;;;;;;;;10388086;28;20388;-86
2023/03/24 05:56:04;;;;;;;24.20;14.32;;;;;;;;;;10409933;28;20056;-87
2023/03/24 06:01:06;;;;;;;25.10;14.75;;;;;;;;;;10375719;28;20048;-84
2023/03/24 06:06:08;;;;;;;26.23;15.15;;;;;;;;;;10439514;23;20152;-86
2023/03/24 06:11:09;;;;;;;26.85;15.60;;;;;;;;;;10476626;28;20033;-85
2023/03/24 06:16:10;;;;;;;25.33;16.35;;;;;;;;;;10421222;28;20040;-85
2023/03/24 06:21:11;;;;;;;23.05;15.52;;;;;;;;;;10455393;28;20127;-85
2023/03/24 06:26:13;;;;;;;23.05;14.45;;;;;;;;;;10484898;28;20029;-87
2023/03/24 06:31:19;;;;;;;23.02;14.65;;;;;;;;;;10441969;23;20057;-87
2023/03/24 06:36:20;;;;;;;22.77;13.88;;;;;;;;;;10488952;28;20020;-86
2023/03/24 06:41:21;;;;;;;24.92;16.77;;;;;;;;;;10480317;28;20050;-84
2023/03/24 06:46:22;;;;;;;22.60;15.25;;;;;;;;;;10458059;28;20102;-86
2023/03/24 06:51:22;;;;;;;27.85;16.90;;;;;;;;;;10464723;28;20032;-85
2023/03/24 06:56:24;;;;;;;33.33;22.00;;;;;;;;;;10465575;28;20032;-84
2023/03/24 07:01:27;;;;;;;29.20;19.95;;;;;;;;;;10454442;28;20082;-85
2023/03/24 07:06:28;;;;;;;27.75;17.15;;;;;;;;;;10474215;28;20047;-84
2023/03/24 07:11:30;;;;;;;26.55;16.10;;;;;;;;;;10449363;28;20053;-85
2023/03/24 07:16:31;;;;;;;27.67;19.08;;;;;;;;;;10488598;28;20036;-83
2023/03/24 07:21:32;;;;;;;26.52;17.48;;;;;;;;;;10468642;28;20524;-85
2023/03/24 07:26:33;;;;;;;26.63;17.33;;;;;;;;;;10464420;28;20024;-84
2023/03/24 07:31:37;;;;;;;26.85;16.05;;;;;;;;;;10428076;28;20088;-84
2023/03/24 07:36:38;;;;;;;26.30;17.65;;;;;;;;;;10448063;28;20028;-84
2023/03/24 07:41:39;;;;;;;22.20;15.90;;;;;;;;;;10446061;28;20037;-84
2023/03/24 07:46:40;;;;;;;26.48;16.88;;;;;;;;;;10426239;28;20035;-84
2023/03/24 07:51:41;;;;;;;29.35;17.45;;;;;;;;;;10400295;28;20028;-85
2023/03/24 07:56:42;;;;;;;27.67;15.85;;;;;;;;;;10414839;28;20087;-85
2023/03/24 08:01:43;;;;;;;23.75;15.55;;;;;;;;;;10417836;28;20124;-85
2023/03/24 08:06:45;;;;;;;25.42;15.57;;;;;;;;;;10446069;28;20055;-85
2023/03/24 08:11:46;;;;;;;23.05;16.10;;;;;;;;;;10433097;28;20030;-85
2023/03/24 08:16:47;;;;;;;23.40;15.85;;;;;;;;;;10410274;28;20033;-84
2023/03/24 08:21:48;;;;;;;22.73;15.27;;;;;;;;;;10409659;28;20046;-86
2023/03/24 08:26:48;;;;;;;20.35;14.57;;;;;;;;;;10401692;28;20028;-84
2023/03/24 08:31:49;;;;;;;20.02;14.15;;;;;;;;;;10389496;28;20057;-85
2023/03/24 08:36:50;;;;;;;19.95;12.77;;;;;;;;;;10412208;28;20039;-84
2023/03/24 08:41:53;;;;;;;18.17;11.95;;;;;;;;;;10466988;28;20122;-85
2023/03/24 08:46:54;;;;;;;17.02;10.57;;;;;;;;;;10484913;28;20464;-83
2023/03/24 08:51:55;;;;;;;14.85;9.77;;;;;;;;;;10484851;28;20113;-83
2023/03/24 08:56:56;;;;;;;15.50;9.65;;;;;;;;;;10466707;28;20043;-85
2023/03/24 09:01:57;;;;;;;10.82;8.60;;;;;;;;;;10471542;28;20036;-84
2023/03/24 09:06:59;;;;;;;10.00;6.45;;;;;;;;;;10483737;28;20035;-84
2023/03/24 09:11:59;;;;;;;9.55;6.00;;;;;;;;;;10466732;28;20033;-86
2023/03/24 09:17:00;;;;;;;8.30;5.07;;;;;;;;;;10484245;28;20032;-83
2023/03/24 09:22:01;;;;;;;6.32;4.13;;;;;;;;;;10471322;28;20503;-83
2023/03/24 09:27:02;;;;;;;10.38;6.07;;;;;;;;;;10483031;28;20029;-84
2023/03/24 09:32:04;;;;;;;8.00;4.65;;;;;;;;;;10424282;28;20061;-85
2023/03/24 09:37:05;;;;;;;6.78;4.65;;;;;;;;;;10442673;28;20033;-85
2023/03/24 09:42:08;;;;;;;6.18;4.65;;;;;;;;;;10443290;28;20051;-84
2023/03/24 09:47:16;;;;;;;9.98;6.45;;;;;;;;;;10448232;28;20033;-83
2023/03/24 09:52:21;;;;;;;7.97;5.43;;;;;;;;;;10442287;28;20064;-84
2023/03/24 09:57:32;;;;;;;8.43;4.30;;;;;;;;;;10424671;28;20404;-87
2023/03/24 10:02:33;;;;;;;7.40;4.95;;;;;;;;;;10438864;28;20037;-84
2023/03/24 10:07:39;;;;;;;7.47;5.30;;;;;;;;;;10438330;28;20040;-86
2023/03/24 10:12:44;;;;;;;6.05;4.50;;;;;;;;;;10435449;28;20685;-84
2023/03/24 10:17:51;;;;;;;7.32;5.25;;;;;;;;;;10439666;28;20768;-85
2023/03/24 10:23:00;;;;;;;8.52;5.20;;;;;;;;;;10429960;28;20048;-84
2023/03/24 10:28:24;;;;;;;9.52;6.78;;;;;;;;;;10423397;28;20057;-85
2023/03/24 10:33:25;;;;;;;8.60;6.53;;;;;;;;;;10400519;28;20033;-86
2023/03/24 10:38:27;;;;;;;9.48;7.03;;;;;;;;;;10416041;28;20048;-84
2023/03/24 10:43:29;;;;;;;10.50;7.65;;;;;;;;;;10406539;28;20036;-83
2023/03/24 10:48:36;;;;;;;14.38;9.77;;;;;;;;;;10405707;28;20033;-84
2023/03/24 10:53:38;;;;;;;10.75;7.90;;;;;;;;;;10388185;28;20092;-83
2023/03/24 10:58:44;;;;;;;11.23;8.13;;;;;;;;;;10396344;28;20036;-84
2023/03/24 11:03:46;;;;;;;22.77;19.70;;;;;;;;;;10406700;28;20025;-86
2023/03/24 11:08:51;;;;;;;9.32;7.03;;;;;;;;;;10416026;28;20112;-86
2023/03/24 11:13:54;;;;;;;10.23;7.32;;;;;;;;;;10415215;28;20024;-84
2023/03/24 11:19:05;;;;;;;10.25;7.43;;;;;;;;;;10423348;28;20116;-85
2023/03/24 11:24:10;;;;;;;11.00;7.43;;;;;;;;;;10414261;28;20408;-85
2023/03/24 11:29:14;;;;;;;21.85;13.13;;;;;;;;;;10457880;28;20068;-85
2023/03/24 11:34:23;;;;;;;11.82;7.68;;;;;;;;;;10480541;28;20484;-83
2023/03/24 11:39:27;;;;;;;11.18;7.25;;;;;;;;;;10481442;28;20027;-84
2023/03/24 11:44:31;;;;;;;11.98;8.77;;;;;;;;;;10469161;28;20035;-84
2023/03/24 11:49:34;;;;;;;12.73;8.38;;;;;;;;;;10465937;28;20039;-85
2023/03/24 11:54:36;;;;;;;12.85;6.65;;;;;;;;;;10456365;28;20143;-85
2023/03/24 11:59:44;;;;;;;8.68;6.43;;;;;;;;;;10472093;28;20286;-86
2023/03/24 12:04:54;;;;;;;8.13;6.25;;;;;;;;;;10459706;28;20041;-85
2023/03/24 12:09:59;;;;;;;10.15;6.82;;;;;;;;;;10425140;28;20118;-84
2023/03/24 12:15:01;;;;;;;;;;;;;;;;;;10475063;28;20357;-84
2023/03/24 12:20:18;;;;;;;9.38;5.90;;;;;;;;;;10454818;28;20395;-85
2023/03/24 12:25:28;;;;;;;7.97;5.95;;;;;;;;;;10474791;28;20029;-86
2023/03/24 12:30:29;;;;;;;11.50;6.95;;;;;;;;;;10418415;28;20057;-85
2023/03/24 12:35:37;;;;;;;10.98;6.72;;;;;;;;;;10427084;28;20380;-83
2023/03/24 12:40:48;;;;;;;10.63;6.28;;;;;;;;;;10399513;28;20084;-85
2023/03/24 12:45:58;;;;;;;8.98;6.85;;;;;;;;;;10415538;28;20783;-84
2023/03/24 12:51:23;;;;;;;10.40;6.55;;;;;;;;;;10421063;28;20061;-82
2023/03/24 12:56:36;;;;;;;9.50;6.30;;;;;;;;;;10379000;28;20052;-83
2023/03/24 13:01:42;;;;;;;9.55;6.85;;;;;;;;;;10422338;28;20056;-83
2023/03/24 13:06:48;;;;;;;12.85;7.95;;;;;;;;;;10421599;28;20033;-84
2023/03/24 13:12:19;;;;;;;11.00;7.18;;;;;;;;;;10397587;28;20037;-86
2023/03/24 13:17:29;;;;;;;10.95;6.68;;;;;;;;;;10368813;28;20154;-86
2023/03/24 13:22:31;;;;;;;11.75;7.78;;;;;;;;;;10406719;28;20048;-84
2023/03/24 13:27:35;;;;;;;20.60;9.18;;;;;;;;;;10401773;28;20029;-83
2023/03/24 13:32:44;;;;;;;11.25;8.32;;;;;;;;;;10405412;28;20032;-84
2023/03/24 13:37:56;;;;;;;12.90;8.40;;;;;;;;;;10406855;28;20079;-84
2023/03/24 13:43:06;;;;;;;15.02;8.27;;;;;;;;;;10408646;28;20033;-86
2023/03/24 13:48:10;;;;;;;12.07;8.00;;;;;;;;;;10391451;28;20040;-86
2023/03/24 13:53:13;;;;;;;13.18;8.18;;;;;;;;;;10422806;28;20114;-84
2023/03/24 13:58:22;;;;;;;10.30;7.82;;;;;;;;;;10407750;28;20405;-84
2023/03/24 14:03:35;;;;;;;11.75;7.90;;;;;;;;;;10400458;28;20052;-85
2023/03/24 14:08:42;;;;;;;15.45;8.63;;;;;;;;;;10401491;28;20040;-85
2023/03/24 14:13:46;;;;;;;16.45;8.98;;;;;;;;;;10418416;28;20120;-83
2023/03/24 14:18:47;;;;;;;10.65;7.63;;;;;;;;;;10394930;28;20658;-82
2023/03/24 14:23:52;;;;;;;14.40;9.00;;;;;;;;;;10419597;28;20037;-84
2023/03/24 14:28:53;;;;;;;14.35;8.82;;;;;;;;;;10429649;28;20130;-83
2023/03/24 14:34:01;;;;;;;12.55;7.97;;;;;;;;;;10475937;28;20029;-83
2023/03/24 14:39:25;;;;;;;15.27;9.63;;;;;;;;;;10446346;28;20029;-84
2023/03/24 14:44:52;;;;;;;17.33;10.70;;;;;;;;;;10471780;28;20037;-83
2023/03/24 14:49:54;;;;;;;17.60;11.20;;;;;;;;;;10459010;28;20569;-82
2023/03/24 14:55:25;;;;;;;14.25;9.20;;;;;;;;;;10478715;28;20046;-84
2023/03/24 15:00:35;;;;;;;16.23;9.40;;;;;;;;;;10440853;28;20052;-83
2023/03/24 15:05:37;;;;;;;16.98;10.95;;;;;;;;;;10474893;28;20064;-84
2023/03/24 15:10:38;;;;;;;18.23;10.68;;;;;;;;;;10479857;28;20435;-84
2023/03/24 15:15:47;;;;;;;11.13;6.70;;;;;;;;;;10457132;28;20033;-88
2023/03/24 15:20:49;;;;;;;12.10;6.95;;;;;;;;;;10476583;28;20044;-86
2023/03/24 15:25:51;;;;;;;9.55;6.70;;;;;;;;;;10488564;28;20475;-84
2023/03/24 15:30:58;;;;;;;10.35;6.43;;;;;;;;;;10410884;28;20065;-83
2023/03/24 15:36:02;;;;;;;8.25;6.25;;;;;;;;;;10414418;28;20033;-85
2023/03/24 15:41:05;;;;;;;11.83;7.00;;;;;;;;;;10428125;28;20029;-84
2023/03/24 15:46:17;;;;;;;18.65;10.57;;;;;;;;;;10409069;28;20404;-83
2023/03/24 15:51:22;;;;;;;12.65;8.32;;;;;;;;;;10413903;28;20025;-85
2023/03/24 15:56:30;;;;;;;10.20;6.80;;;;;;;;;;10413106;28;20040;-84
2023/03/24 16:01:37;;;;;;;12.13;7.47;;;;;;;;;;10418253;28;20440;-84
2023/03/24 16:06:39;;;;;;;17.02;9.88;;;;;;;;;;10390393;28;20036;-84
2023/03/24 16:11:41;;;;;;;14.43;8.98;;;;;;;;;;10415099;28;20033;-84
2023/03/24 16:16:43;;;;;;;13.63;9.35;;;;;;;;;;10408962;28;20032;-86
2023/03/24 16:21:46;;;;;;;20.75;10.75;;;;;;;;;;10392167;28;20037;-89
2023/03/24 16:26:47;;;;;;;14.80;9.02;;;;;;;;;;10409173;28;20033;-84
2023/03/24 16:31:50;;;;;;;17.75;9.98;;;;;;;;;;10450451;28;20056;-88
2023/03/24 16:36:51;;;;;;;31.80;18.58;;;;;;;;;;10448233;28;20117;-85
2023/03/24 16:41:53;;;;;;;30.27;18.25;;;;;;;;;;10483861;28;20038;-87
2023/03/24 16:46:54;;;;;;;28.48;16.48;;;;;;;;;;10461555;28;20056;-88
2023/03/24 16:51:55;;;;;;;24.38;15.77;;;;;;;;;;10456748;28;20111;-86
2023/03/24 16:56:56;;;;;;;25.73;15.98;;;;;;;;;;10464369;28;20044;-86
2023/03/24 17:02:04;;;;;;;42.90;29.50;;;;;;;;;;10447761;28;20037;-87
2023/03/24 17:07:05;;;;;;;29.67;18.85;;;;;;;;;;10481946;28;20430;-85
2023/03/24 17:12:08;;;;;;;23.35;13.82;;;;;;;;;;10486096;28;20440;-87
2023/03/24 17:17:12;;;;;;;19.80;12.50;;;;;;;;;;10459369;28;20036;-86
2023/03/24 17:22:18;;;;;;;20.45;12.88;;;;;;;;;;10484205;28;20076;-88
2023/03/24 17:27:20;;;;;;;29.73;16.33;;;;;;;;;;10453532;28;20550;-86
2023/03/24 17:32:21;;;;;;;32.33;18.33;;;;;;;;;;10431964;28;20021;-87
2023/03/24 17:37:22;;;;;;;33.78;20.55;;;;;;;;;;10424867;28;20033;-86
2023/03/24 17:42:25;;;;;;;32.53;20.30;;;;;;;;;;10426264;28;20025;-83
2023/03/24 17:47:26;;;;;;;28.42;16.55;;;;;;;;;;10421372;28;20131;-87
2023/03/24 17:52:27;;;;;;;22.05;14.88;;;;;;;;;;10450475;28;20040;-88
2023/03/24 17:57:32;;;;;;;23.95;16.02;;;;;;;;;;10442681;28;20036;-86
2023/03/24 18:02:33;;;;;;;30.20;21.13;;;;;;;;;;10430995;28;20048;-86
2023/03/24 18:07:34;;;;;;;29.73;19.65;;;;;;;;;;10422004;28;20025;-88
2023/03/24 18:12:35;;;;;;;25.13;16.33;;;;;;;;;;10424919;28;20028;-86
2023/03/24 18:17:37;;;;;;;24.33;14.63;;;;;;;;;;10450423;28;20460;-86
2023/03/24 18:22:39;;;;;;;23.60;14.65;;;;;;;;;;10439494;28;20042;-87
2023/03/24 18:27:43;;;;;;;21.10;14.40;;;;;;;;;;10444213;28;20615;-85
2023/03/24 18:32:47;;;;;;;22.67;13.80;;;;;;;;;;10397902;28;20037;-86
2023/03/24 18:37:48;;;;;;;24.45;15.35;;;;;;;;;;10397369;28;20045;-85
2023/03/24 18:42:49;;;;;;;24.98;15.32;;;;;;;;;;10407290;28;20131;-85
2023/03/24 18:47:50;;;;;;;23.00;15.18;;;;;;;;;;10435063;28;20025;-89
2023/03/24 18:52:51;;;;;;;22.25;14.80;;;;;;;;;;10439755;28;20784;-87
2023/03/24 18:57:52;;;;;;;21.30;13.15;;;;;;;;;;10417235;28;20025;-86
2023/03/24 19:02:53;;;;;;;25.33;14.98;;;;;;;;;;10388588;28;20034;-86
2023/03/24 19:07:53;;;;;;;26.05;14.77;;;;;;;;;;10415984;28;20040;-86
2023/03/24 19:12:54;;;;;;;23.52;13.48;;;;;;;;;;10413839;28;20101;-84
2023/03/24 19:18:00;;;;;;;24.85;14.02;;;;;;;;;;10388108;28;20038;-86
2023/03/24 19:23:01;;;;;;;20.25;12.93;;;;;;;;;;10416386;28;20048;-85
2023/03/24 19:28:02;;;;;;;20.85;12.18;;;;;;;;;;10393697;28;20049;-86
2023/03/24 19:33:05;;;;;;;22.58;13.57;;;;;;;;;;10435115;28;20534;-84
2023/03/24 19:38:06;;;;;;;19.92;12.57;;;;;;;;;;10462912;28;20025;-86
2023/03/24 19:43:10;;;;;;;20.15;13.13;;;;;;;;;;10428117;28;20511;-87
2023/03/24 19:48:13;;;;;;;25.30;14.05;;;;;;;;;;10466759;28;20029;-86
2023/03/24 19:53:14;;;;;;;25.02;12.32;;;;;;;;;;10423038;28;20029;-86
2023/03/24 19:58:16;;;;;;;21.70;13.02;;;;;;;;;;10441027;28;20041;-85
2023/03/24 20:03:17;;;;;;;22.73;12.65;;;;;;;;;;10452157;28;20041;-88
2023/03/24 20:08:18;;;;;;;18.50;11.10;;;;;;;;;;10478554;28;20658;-86
2023/03/24 20:13:22;;;;;;;16.88;10.85;;;;;;;;;;10487191;28;20505;-85
2023/03/24 20:18:24;;;;;;;18.35;10.45;;;;;;;;;;10458860;28;20076;-85
2023/03/24 20:23:25;;;;;;;17.50;10.75;;;;;;;;;;10457791;28;20511;-85
2023/03/24 20:28:28;;;;;;;14.32;8.70;;;;;;;;;;10431258;28;20136;-86
2023/03/24 20:33:30;;;;;;;16.98;9.35;;;;;;;;;;10458736;28;20118;-85
2023/03/24 20:38:31;;;;;;;16.63;9.60;;;;;;;;;;10482980;28;20114;-86
2023/03/24 20:43:35;;;;;;;18.67;10.45;;;;;;;;;;10485792;28;20222;-87
2023/03/24 20:48:44;;;;;;;23.45;11.50;;;;;;;;;;10485852;28;20475;-88
2023/03/24 20:53:46;;;;;;;16.48;9.80;;;;;;;;;;10475950;28;20032;-85
2023/03/24 20:58:50;;;;;;;19.63;11.90;;;;;;;;;;10479647;28;20047;-85
2023/03/24 21:03:51;;;;;;;25.95;18.00;;;;;;;;;;10483835;28;20067;-88
2023/03/24 21:08:53;;;;;;;41.95;27.17;;;;;;;;;;10472394;28;20051;-85
2023/03/24 21:13:56;;;;;;;31.45;19.80;;;;;;;;;;10461465;28;20074;-85
2023/03/24 21:19:02;;;;;;;21.58;13.35;;;;;;;;;;10467527;28;20040;-86
2023/03/24 21:24:03;;;;;;;;;;;;;;;;;;10472218;28;20064;-86
2023/03/24 21:29:05;;;;;;;16.30;9.75;;;;;;;;;;10439284;28;20399;-88
2023/03/24 21:34:09;;;;;;;15.73;9.10;;;;;;;;;;10447553;28;20017;-87
2023/03/24 21:39:10;;;;;;;13.95;8.57;;;;;;;;;;10484713;28;20028;-86
2023/03/24 21:44:11;;;;;;;18.33;9.50;;;;;;;;;;10466375;28;20403;-84
2023/03/24 21:49:12;;;;;;;36.92;19.38;;;;;;;;;;10478623;28;20025;-85
2023/03/24 21:54:13;;;;;;;26.65;17.20;;;;;;;;;;10459436;28;20182;-83
2023/03/24 21:59:14;;;;;;;35.83;24.92;;;;;;;;;;10482746;28;20029;-84
2023/03/24 22:04:16;;;;;;;35.08;24.50;;;;;;;;;;10483851;28;20490;-84
2023/03/24 22:09:17;;;;;;;26.55;17.23;;;;;;;;;;10484004;28;20032;-85
2023/03/24 22:14:19;;;;;;;17.70;10.07;;;;;;;;;;10452799;23;20077;-85
2023/03/24 22:19:21;;;;;;;16.38;10.13;;;;;;;;;;10401480;28;20053;-86
2023/03/24 22:24:23;;;;;;;24.77;12.93;;;;;;;;;;10446589;28;20044;-86
2023/03/24 22:29:28;;;;;;;15.35;9.90;;;;;;;;;;10449481;28;20078;-86
2023/03/24 22:34:29;;;;;;;17.90;11.10;;;;;;;;;;10455722;28;20033;-85
2023/03/24 22:39:30;;;;;;;20.67;11.95;;;;;;;;;;10463204;28;20025;-86
2023/03/24 22:44:32;;;;;;;25.60;17.45;;;;;;;;;;10457519;28;20476;-84
2023/03/24 22:49:35;;;;;;;20.17;12.63;;;;;;;;;;10443965;28;20021;-85
2023/03/24 22:54:36;;;;;;;17.45;10.75;;;;;;;;;;10458966;28;20028;-85
2023/03/24 22:59:39;;;;;;;15.20;9.75;;;;;;;;;;10479404;28;20024;-85
2023/03/24 23:04:41;;;;;;;18.42;10.98;;;;;;;;;;10430859;28;20504;-86
2023/03/24 23:09:42;;;;;;;18.52;10.40;;;;;;;;;;10475877;28;20035;-86
2023/03/24 23:14:45;;;;;;;15.63;9.65;;;;;;;;;;10475221;28;20045;-84
2023/03/24 23:19:48;;;;;;;14.10;8.50;;;;;;;;;;10465942;28;20573;-85
2023/03/24 23:24:52;;;;;;;20.15;10.63;;;;;;;;;;10462524;28;20032;-83
2023/03/24 23:29:56;;;;;;;25.35;11.93;;;;;;;;;;10461374;28;20029;-86
2023/03/24 23:34:57;;;;;;;24.35;9.80;;;;;;;;;;10459015;28;20031;-85
2023/03/24 23:40:08;;;;;;;17.98;9.10;;;;;;;;;;10444513;28;20465;-84
2023/03/24 23:45:13;;;;;;;18.48;8.95;;;;;;;;;;10436047;28;20055;-86
2023/03/24 23:50:14;;;;;;;16.60;8.27;;;;;;;;;;10435795;28;20016;-85
2023/03/24 23:55:16;;;;;;;19.05;10.00;;;;;;;;;;10438209;28;20036;-88
